Time;durP1;ratioP1;P1;durP2;ratioP2;P2;SDS_P1;SDS_P2;PMS_P1;PMS_P2;Temp;Humidity;BMP_temperature;BMP_pressure;BME280_temperature;BME280_humidity;BME280_pressure;Samples;Min_cycle;Max_cycle;Signal;HPM_P1;HPM_P2
2023/05/13 00:04:00;;;;;;;6.05;4.78;;;18.40;73.70;;;;;;10286197;28;20465;-59
2023/05/13 00:09:00;;;;;;;4.70;4.18;;;18.30;73.50;;;;;;10303201;28;20462;-58
2023/05/13 00:14:01;;;;;;;5.63;4.10;;;18.30;73.50;;;;;;10302630;28;20074;-58
2023/05/13 00:19:02;;;;;;;6.88;4.63;;;18.30;73.50;;;;;;10270397;28;20112;-59
2023/05/13 00:24:04;;;;;;;4.68;4.18;;;18.30;73.50;;;;;;10246233;28;20019;-57
2023/05/13 00:29:04;;;;;;;5.68;4.90;;;18.30;73.50;;;;;;10230158;29;20019;-58
2023/05/13 00:34:05;;;;;;;4.43;3.92;;;18.30;73.50;;;;;;10255217;28;20027;-59
2023/05/13 00:39:06;;;;;;;4.22;3.83;;;18.30;73.40;;;;;;10213939;29;20023;-58
2023/05/13 00:44:07;;;;;;;6.25;4.47;;;18.30;73.40;;;;;;10229808;29;20031;-58
2023/05/13 00:49:08;;;;;;;4.88;4.30;;;18.30;73.40;;;;;;10229348;28;20429;-59
2023/05/13 00:54:08;;;;;;;4.57;4.15;;;18.30;73.30;;;;;;10229142;28;20019;-59
2023/05/13 00:59:09;;;;;;;5.25;4.63;;;18.30;73.30;;;;;;10229195;29;20023;-59
2023/05/13 01:04:49;;;;;;;4.82;3.63;;;18.30;73.30;;;;;;10234193;29;20471;-58
2023/05/13 01:10:25;;;;;;;4.43;3.97;;;18.30;73.10;;;;;;10232105;29;20059;-59
2023/05/13 01:15:27;;;;;;;5.00;4.47;;;18.20;73.00;;;;;;10213135;28;20054;-58
2023/05/13 01:20:30;;;;;;;4.75;4.25;;;18.20;72.90;;;;;;10228509;29;20019;-59
2023/05/13 01:25:31;;;;;;;4.70;4.15;;;18.20;73.00;;;;;;10228128;28;20598;-58
2023/05/13 01:30:32;;;;;;;4.50;3.97;;;18.20;72.90;;;;;;10227610;29;20011;-59
2023/05/13 01:35:33;;;;;;;5.38;4.43;;;18.20;72.80;;;;;;10223225;28;20681;-58
2023/05/13 01:40:34;;;;;;;4.85;4.20;;;18.20;72.60;;;;;;10242785;28;20054;-58
2023/05/13 01:45:35;;;;;;;4.13;3.72;;;18.20;72.50;;;;;;10299527;28;20130;-59
2023/05/13 01:50:36;;;;;;;4.88;4.30;;;18.20;72.40;;;;;;10270302;28;20034;-58
2023/05/13 01:55:37;;;;;;;5.13;4.40;;;18.20;72.20;;;;;;10299114;28;20102;-59
2023/05/13 02:00:37;;;;;;;5.60;4.65;;;18.20;72.10;;;;;;10299144;28;20465;-58
2023/05/13 02:05:38;;;;;;;5.07;4.00;;;18.20;72.10;;;;;;10282674;28;20035;-59
2023/05/13 02:10:39;;;;;;;4.72;4.22;;;18.20;71.90;;;;;;10298796;28;20086;-59
2023/05/13 02:15:40;;;;;;;4.85;4.15;;;18.20;71.80;;;;;;10230513;29;20134;-59
2023/05/13 02:20:41;;;;;;;4.25;3.75;;;18.20;71.80;;;;;;10243924;28;20203;-58
2023/05/13 02:25:42;;;;;;;4.88;4.20;;;18.10;71.80;;;;;;10268310;28;20038;-58
2023/05/13 02:30:42;;;;;;;4.72;4.30;;;18.20;71.80;;;;;;10311439;28;20018;-62
2023/05/13 02:35:43;;;;;;;4.35;3.92;;;18.20;71.80;;;;;;10293799;28;20029;-59
2023/05/13 02:40:44;;;;;;;5.60;4.50;;;18.10;71.60;;;;;;10258795;28;20105;-59
2023/05/13 02:45:45;;;;;;;5.13;4.63;;;18.10;71.70;;;;;;10310670;28;20039;-59
2023/05/13 02:50:46;;;;;;;4.07;3.67;;;18.10;71.70;;;;;;10250357;28;20023;-59
2023/05/13 02:55:46;;;;;;;4.68;4.15;;;18.10;71.50;;;;;;10284251;28;20447;-58
2023/05/13 03:00:47;;;;;;;5.60;4.22;;;18.10;71.50;;;;;;10244840;28;20020;-59
2023/05/13 03:05:48;;;;;;;5.38;4.18;;;18.10;71.40;;;;;;10260025;28;20557;-58
2023/05/13 03:10:51;;;;;;;5.30;4.68;;;18.10;71.40;;;;;;10257671;28;20038;-58
2023/05/13 03:15:51;;;;;;;5.10;4.60;;;18.10;71.40;;;;;;10248448;28;20046;-59
2023/05/13 03:20:52;;;;;;;5.30;4.80;;;18.10;71.50;;;;;;10281181;28;20065;-58
2023/05/13 03:25:54;;;;;;;5.60;4.18;;;18.10;71.40;;;;;;10271124;28;20051;-58
2023/05/13 03:30:54;;;;;;;5.82;5.32;;;18.10;71.40;;;;;;10238056;28;20066;-58
2023/05/13 03:35:55;;;;;;;5.20;4.40;;;18.10;71.30;;;;;;10265205;28;20023;-59
2023/05/13 03:40:56;;;;;;;5.78;4.97;;;18.10;71.40;;;;;;10231524;29;20118;-57
2023/05/13 03:45:57;;;;;;;5.43;4.28;;;18.10;71.30;;;;;;10249374;29;20039;-59
2023/05/13 03:50:57;;;;;;;5.78;4.40;;;18.00;71.20;;;;;;10232001;28;20102;-58
2023/05/13 03:55:58;;;;;;;4.95;4.45;;;18.00;71.20;;;;;;10282392;28;20118;-59
2023/05/13 04:00:59;;;;;;;6.30;4.70;;;18.00;71.10;;;;;;10249777;28;20175;-58
2023/05/13 04:05:59;;;;;;;5.30;4.78;;;18.00;71.00;;;;;;10231736;28;20066;-58
2023/05/13 04:11:00;;;;;;;6.10;5.50;;;18.00;71.10;;;;;;10230196;29;20529;-58
2023/05/13 04:16:02;;;;;;;5.40;4.50;;;18.00;71.10;;;;;;10284826;28;20135;-58
2023/05/13 04:21:07;;;;;;;5.43;4.93;;;18.00;71.20;;;;;;10286970;28;20073;-57
2023/05/13 04:26:07;;;;;;;5.60;5.00;;;18.00;71.10;;;;;;10222126;28;20038;-56
2023/05/13 04:31:08;;;;;;;4.85;4.20;;;18.00;71.10;;;;;;10247811;29;20050;-58
2023/05/13 04:36:09;;;;;;;6.53;5.93;;;17.90;71.00;;;;;;10225946;28;20019;-58
2023/05/13 04:41:09;;;;;;;5.55;4.63;;;18.00;71.10;;;;;;10230267;28;20031;-58
2023/05/13 04:46:10;;;;;;;4.88;4.30;;;18.00;71.10;;;;;;10229452;28;20067;-57
2023/05/13 04:51:11;;;;;;;5.10;4.13;;;18.00;71.00;;;;;;10248530;28;20110;-59
2023/05/13 04:56:11;;;;;;;5.18;4.68;;;17.90;71.30;;;;;;10254524;28;20057;-59
2023/05/13 05:01:12;;;;;;;6.57;4.97;;;18.00;71.40;;;;;;10228494;28;20026;-58
2023/05/13 05:06:13;;;;;;;14.35;5.90;;;18.00;71.40;;;;;;10238385;28;20042;-58
2023/05/13 05:11:13;;;;;;;9.60;5.72;;;18.20;72.50;;;;;;10224036;28;20489;-61
2023/05/13 05:16:14;;;;;;;11.20;5.35;;;18.30;72.40;;;;;;10298514;28;20548;-59
2023/05/13 05:21:17;;;;;;;17.98;5.82;;;18.30;72.70;;;;;;10298965;28;20031;-58
2023/05/13 05:26:17;;;;;;;13.27;5.50;;;18.40;73.10;;;;;;10298392;28;20101;-59
2023/05/13 05:31:18;;;;;;;8.70;5.70;;;18.40;73.10;;;;;;10263873;28;20015;-58
2023/05/13 05:36:19;;;;;;;19.27;7.82;;;18.50;73.00;;;;;;10246956;28;20023;-59
2023/05/13 05:41:21;;;;;;;12.48;6.20;;;18.50;72.80;;;;;;10230986;28;20023;-58
2023/05/13 05:46:21;;;;;;;29.38;8.45;;;18.50;72.90;;;;;;10220097;28;20035;-59
2023/05/13 05:51:22;;;;;;;34.15;8.15;;;18.40;73.10;;;;;;10197678;28;20111;-58
2023/05/13 05:56:23;;;;;;;27.60;7.93;;;18.30;73.00;;;;;;10264282;28;20473;-58
2023/05/13 06:01:23;;;;;;;27.42;9.30;;;18.30;73.20;;;;;;10242602;28;20114;-59
2023/05/13 06:06:24;;;;;;;30.45;8.75;;;18.30;72.10;;;;;;10211481;28;20399;-57
2023/05/13 06:11:25;;;;;;;19.75;8.70;;;18.50;71.70;;;;;;10272759;28;20098;-58
2023/05/13 06:16:25;;;;;;;31.30;9.63;;;18.40;72.30;;;;;;10249128;28;20145;-56
2023/05/13 06:21:26;;;;;;;28.80;9.45;;;18.40;72.50;;;;;;10209116;29;20141;-56
2023/05/13 06:26:28;;;;;;;29.63;9.45;;;18.30;72.80;;;;;;10204332;28;20514;-57
2023/05/13 06:31:29;;;;;;;25.42;9.65;;;18.20;72.30;;;;;;10254174;28;20030;-56
2023/05/13 06:36:29;;;;;;;20.20;8.48;;;18.20;72.80;;;;;;10289173;28;20095;-57
2023/05/13 06:41:30;;;;;;;20.60;7.95;;;18.20;72.80;;;;;;10210312;29;20066;-56
2023/05/13 06:46:31;;;;;;;12.80;7.30;;;18.20;72.80;;;;;;10226989;28;20163;-56
2023/05/13 06:51:33;;;;;;;21.95;8.90;;;18.20;72.80;;;;;;10225099;29;20618;-54
2023/05/13 06:56:34;;;;;;;22.42;8.00;;;18.20;72.80;;;;;;10209908;29;20034;-56
2023/05/13 07:01:35;;;;;;;26.30;9.60;;;18.20;72.80;;;;;;10224467;29;20062;-57
2023/05/13 07:06:35;;;;;;;15.48;7.80;;;18.20;72.70;;;;;;10225264;28;20559;-57
2023/05/13 07:11:36;;;;;;;19.77;8.50;;;18.20;73.20;;;;;;10257525;28;20023;-56
2023/05/13 07:16:37;;;;;;;24.55;9.07;;;18.20;72.50;;;;;;10302355;28;20046;-56
2023/05/13 07:21:38;;;;;;;20.65;7.78;;;18.20;72.80;;;;;;10269256;28;20031;-57
2023/05/13 07:26:38;;;;;;;18.45;7.75;;;18.30;72.40;;;;;;10260761;28;20049;-56
2023/05/13 07:31:40;;;;;;;22.33;8.93;;;18.20;72.20;;;;;;10304415;28;20030;-56
2023/05/13 07:36:40;;;;;;;31.67;9.05;;;18.30;72.30;;;;;;10281114;28;20668;-56
2023/05/13 07:41:41;;;;;;;17.95;7.25;;;18.30;72.90;;;;;;10248579;29;20051;-56
2023/05/13 07:46:42;;;;;;;17.25;8.05;;;18.30;72.20;;;;;;10248609;29;20111;-57
2023/05/13 07:51:42;;;;;;;24.83;7.97;;;18.30;72.10;;;;;;10244131;28;20029;-56
2023/05/13 07:56:45;;;;;;;16.27;7.85;;;18.30;72.00;;;;;;10287069;28;20634;-56
2023/05/13 08:01:46;;;;;;;15.93;7.50;;;18.30;71.80;;;;;;10302277;28;20101;-56
2023/05/13 08:06:46;;;;;;;15.23;7.78;;;18.40;71.60;;;;;;10301114;28;20390;-56
2023/05/13 08:11:47;;;;;;;16.35;6.75;;;18.40;71.60;;;;;;10278570;28;20105;-57
2023/05/13 08:16:47;;;;;;;9.55;6.35;;;18.40;71.60;;;;;;10302385;28;20118;-53
2023/05/13 08:21:48;;;;;;;17.17;8.43;;;18.40;71.50;;;;;;10263924;28;20067;-51
2023/05/13 08:26:50;;;;;;;14.27;7.03;;;18.40;71.40;;;;;;10282894;28;20077;-53
2023/05/13 08:31:52;;;;;;;11.85;7.13;;;18.40;71.60;;;;;;10287446;28;20118;-54
2023/05/13 08:36:53;;;;;;;11.70;7.07;;;18.40;71.50;;;;;;10264388;28;20427;-52
2023/05/13 08:41:56;;;;;;;12.20;7.43;;;18.40;71.50;;;;;;10242790;28;20128;-54
2023/05/13 08:47:23;;;;;;;15.13;6.90;;;18.40;71.50;;;;;;10225785;29;20031;-54
2023/05/13 08:52:25;;;;;;;9.50;6.18;;;18.40;71.50;;;;;;10235138;29;20023;-54
2023/05/13 08:57:26;;;;;;;10.50;6.20;;;18.40;71.50;;;;;;10224517;29;20526;-54
2023/05/13 09:02:27;;;;;;;9.32;6.38;;;18.40;71.40;;;;;;10241390;29;20394;-51
2023/05/13 09:07:32;;;;;;;8.68;5.95;;;18.50;71.50;;;;;;10226052;29;20038;-54
2023/05/13 09:12:53;;;;;;;12.63;7.18;;;18.50;71.30;;;;;;10244083;29;20027;-52
2023/05/13 09:18:06;;;;;;;9.60;6.85;;;18.50;71.30;;;;;;10243785;28;20138;-54
2023/05/13 09:23:10;;;;;;;12.02;5.70;;;18.50;71.20;;;;;;10243248;28;20476;-53
2023/05/13 09:28:14;;;;;;;8.27;6.18;;;18.50;71.20;;;;;;10245467;28;20019;-54
2023/05/13 09:33:18;;;;;;;8.25;5.57;;;18.50;71.20;;;;;;10283215;28;20019;-54
2023/05/13 09:38:24;;;;;;;11.20;6.22;;;18.50;71.20;;;;;;10259927;28;20024;-54
2023/05/13 09:43:33;;;;;;;14.75;5.88;;;18.60;71.20;;;;;;10226454;28;20031;-53
2023/05/13 09:48:33;;;;;;;6.57;5.40;;;18.60;71.00;;;;;;10251481;28;20019;-54
2023/05/13 09:53:34;;;;;;;8.23;5.70;;;18.60;71.20;;;;;;10257196;28;20754;-53
2023/05/13 09:58:35;;;;;;;8.82;6.13;;;18.60;71.20;;;;;;10242775;28;20037;-54
2023/05/13 10:03:36;;;;;;;5.88;5.07;;;18.60;71.30;;;;;;10241490;28;20039;-55
2023/05/13 10:08:38;;;;;;;8.15;5.55;;;18.60;71.20;;;;;;10297040;28;20027;-53
2023/05/13 10:13:39;;;;;;;6.97;5.35;;;18.60;71.20;;;;;;10249255;28;20051;-54
2023/05/13 10:18:39;;;;;;;11.65;5.47;;;18.70;71.00;;;;;;10224133;29;20023;-52
2023/05/13 10:23:41;;;;;;;5.85;4.93;;;18.70;71.00;;;;;;10224237;28;20040;-54
2023/05/13 10:28:42;;;;;;;5.50;4.78;;;18.80;71.00;;;;;;10278163;28;20027;-54
2023/05/13 10:33:44;;;;;;;6.93;5.45;;;18.70;70.90;;;;;;10296067;28;20035;-53
2023/05/13 10:39:23;;;;;;;6.50;5.60;;;18.70;70.80;;;;;;10255383;28;20207;-53
2023/05/13 10:44:26;;;;;;;6.60;5.22;;;18.80;70.60;;;;;;10225874;29;20071;-53
2023/05/13 10:49:33;;;;;;;8.10;5.50;;;18.80;70.70;;;;;;10228361;28;20023;-54
2023/05/13 10:54:39;;;;;;;6.22;5.63;;;18.90;70.50;;;;;;10263716;28;20121;-54
2023/05/13 11:00:14;;;;;;;7.20;5.50;;;18.90;70.50;;;;;;10232072;29;20497;-52
2023/05/13 11:05:20;;;;;;;6.25;5.38;;;18.90;70.50;;;;;;10231855;29;20023;-54
2023/05/13 11:10:27;;;;;;;5.20;4.70;;;18.90;70.40;;;;;;10231117;29;20026;-53
2023/05/13 11:15:51;;;;;;;5.18;4.30;;;18.90;70.40;;;;;;10260920;28;20058;-54
2023/05/13 11:20:53;;;;;;;6.35;5.20;;;18.90;70.40;;;;;;10288263;28;20026;-54
2023/05/13 11:26:15;;;;;;;5.75;4.82;;;19.00;70.50;;;;;;10288203;28;20058;-55
2023/05/13 11:31:16;;;;;;;13.35;5.72;;;19.00;70.50;;;;;;10302222;28;20178;-53
2023/05/13 11:36:19;;;;;;;5.43;4.75;;;19.00;70.50;;;;;;10270102;28;20027;-54
2023/05/13 11:41:20;;;;;;;6.30;5.70;;;19.00;70.50;;;;;;10229727;29;20519;-55
2023/05/13 11:46:23;;;;;;;5.68;4.80;;;19.00;70.50;;;;;;10230292;29;20031;-52
2023/05/13 11:51:27;;;;;;;6.25;5.22;;;19.00;70.50;;;;;;10246940;28;20029;-53
2023/05/13 11:56:29;;;;;;;6.70;5.25;;;19.00;70.60;;;;;;10254386;28;20027;-53
2023/05/13 12:01:29;;;;;;;5.28;4.65;;;18.90;70.40;;;;;;10300360;28;20492;-54
2023/05/13 12:06:30;;;;;;;4.72;4.22;;;19.00;70.60;;;;;;10285972;28;20035;-53
2023/05/13 12:11:31;;;;;;;5.10;4.60;;;19.00;70.60;;;;;;10286363;28;20027;-54
2023/05/13 12:16:32;;;;;;;5.10;4.60;;;19.10;70.50;;;;;;10300531;28;20074;-54
2023/05/13 12:21:33;;;;;;;5.38;4.85;;;19.10;70.50;;;;;;10256257;28;20027;-54
2023/05/13 12:26:34;;;;;;;5.45;4.78;;;19.10;70.30;;;;;;10246050;28;20039;-54
2023/05/13 12:31:34;;;;;;;4.47;4.05;;;19.10;70.30;;;;;;10245683;28;20047;-54
2023/05/13 12:36:37;;;;;;;5.40;4.78;;;19.10;70.40;;;;;;10228215;28;20114;-54
2023/05/13 12:41:49;;;;;;;5.63;4.75;;;19.20;70.30;;;;;;10279594;28;20205;-54
2023/05/13 12:46:54;;;;;;;5.75;4.95;;;19.20;70.40;;;;;;10298898;28;20481;-54
2023/05/13 12:51:55;;;;;;;5.05;4.53;;;19.20;70.00;;;;;;10257753;28;20789;-54
2023/05/13 12:56:56;;;;;;;5.32;4.45;;;19.20;70.00;;;;;;10244207;28;20208;-53
2023/05/13 13:01:57;;;;;;;5.05;4.60;;;19.30;69.90;;;;;;10245110;28;20400;-54
2023/05/13 13:06:57;;;;;;;7.10;4.80;;;19.30;69.80;;;;;;10257276;28;20042;-54
2023/05/13 13:11:58;;;;;;;4.90;4.40;;;19.30;69.80;;;;;;10219150;28;20030;-54
2023/05/13 13:16:59;;;;;;;5.70;4.30;;;19.40;69.70;;;;;;10210498;29;20097;-51
2023/05/13 13:21:59;;;;;;;4.65;4.18;;;19.40;69.50;;;;;;10243452;29;20055;-54
2023/05/13 13:27:00;;;;;;;5.10;4.60;;;19.40;69.50;;;;;;10210518;29;20101;-53
2023/05/13 13:32:01;;;;;;;5.38;4.70;;;19.40;69.60;;;;;;10225842;29;20492;-54
2023/05/13 13:37:01;;;;;;;5.78;4.45;;;19.40;69.50;;;;;;10238342;28;20090;-54
2023/05/13 13:42:03;;;;;;;5.32;4.82;;;19.40;69.40;;;;;;10242854;29;20086;-53
2023/05/13 13:47:04;;;;;;;4.80;3.88;;;19.40;70.00;;;;;;10225085;29;20032;-54
2023/05/13 13:52:05;;;;;;;4.60;4.07;;;19.40;69.30;;;;;;10242356;28;20019;-55
2023/05/13 13:57:05;;;;;;;4.43;3.78;;;19.40;69.30;;;;;;10225425;29;20023;-54
2023/05/13 14:02:06;;;;;;;6.15;4.50;;;19.40;69.30;;;;;;10224844;29;20031;-53
2023/05/13 14:07:07;;;;;;;5.28;3.75;;;19.40;69.30;;;;;;10208948;29;20110;-53
2023/05/13 14:12:08;;;;;;;4.68;4.25;;;19.40;69.30;;;;;;10242161;28;20115;-54
2023/05/13 14:17:08;;;;;;;4.70;3.90;;;19.40;69.20;;;;;;10224216;29;20058;-52
2023/05/13 14:22:09;;;;;;;5.25;4.35;;;19.50;69.10;;;;;;10240995;28;20468;-55
2023/05/13 14:27:10;;;;;;;13.77;4.05;;;19.50;69.20;;;;;;10241004;28;20449;-53
2023/05/13 14:32:10;;;;;;;6.25;4.28;;;19.50;69.30;;;;;;10241226;28;20023;-55
2023/05/13 14:37:11;;;;;;;5.65;4.78;;;19.50;69.10;;;;;;10252078;28;20019;-56
2023/05/13 14:42:12;;;;;;;14.52;4.63;;;19.50;69.20;;;;;;10270063;28;20031;-54
2023/05/13 14:47:13;;;;;;;6.05;3.85;;;19.50;69.40;;;;;;10259046;28;20145;-55
2023/05/13 14:52:13;;;;;;;11.85;4.28;;;19.60;69.70;;;;;;10285449;28;20030;-54
2023/05/13 14:57:14;;;;;;;8.13;4.30;;;19.60;69.50;;;;;;10254528;28;20178;-54
2023/05/13 15:02:16;;;;;;;10.63;5.38;;;19.60;69.30;;;;;;10242460;28;20049;-54
2023/05/13 15:07:16;;;;;;;8.07;5.82;;;19.60;69.10;;;;;;10294829;28;20033;-54
2023/05/13 15:12:17;;;;;;;9.35;4.47;;;19.60;68.90;;;;;;10272130;28;20027;-53
2023/05/13 15:17:18;;;;;;;5.03;3.97;;;19.40;68.70;;;;;;10224258;29;20043;-54
2023/05/13 15:22:18;;;;;;;5.90;4.35;;;19.50;68.50;;;;;;10241217;29;20046;-55
2023/05/13 15:27:19;;;;;;;7.22;4.85;;;19.50;68.40;;;;;;10240831;29;20027;-53
2023/05/13 15:32:20;;;;;;;5.97;4.60;;;19.50;67.70;;;;;;10280710;28;20066;-54
2023/05/13 15:37:20;;;;;;;8.77;5.47;;;19.50;67.60;;;;;;10275430;28;20031;-54
2023/05/13 15:42:21;;;;;;;11.10;5.75;;;19.60;67.60;;;;;;10249310;29;20086;-55
2023/05/13 15:47:22;;;;;;;11.23;6.25;;;19.60;66.50;;;;;;10231649;29;20035;-55
2023/05/13 15:52:23;;;;;;;8.32;5.90;;;19.60;65.80;;;;;;10248590;28;20066;-54
2023/05/13 15:57:24;;;;;;;6.97;5.18;;;19.60;65.50;;;;;;10231858;29;20070;-55
2023/05/13 16:02:24;;;;;;;7.32;4.57;;;19.60;64.60;;;;;;10268884;28;20166;-53
2023/05/13 16:07:25;;;;;;;6.78;5.57;;;19.60;64.00;;;;;;10287054;28;20063;-55
2023/05/13 16:12:26;;;;;;;9.48;5.28;;;19.60;63.80;;;;;;10288246;28;20029;-55
2023/05/13 16:17:26;;;;;;;6.85;4.57;;;19.60;63.20;;;;;;10264647;28;20043;-55
2023/05/13 16:22:35;;;;;;;6.50;5.43;;;20.00;65.00;;;;;;10231143;29;20110;-55
2023/05/13 16:27:37;;;;;;;8.50;4.97;;;20.10;65.20;;;;;;10230788;28;20356;-52
2023/05/13 16:32:38;;;;;;;17.05;5.88;;;20.10;65.90;;;;;;10247045;29;20024;-55
2023/05/13 16:37:39;;;;;;;5.97;5.30;;;20.20;66.10;;;;;;10242936;28;20382;-55
2023/05/13 16:42:39;;;;;;;12.27;5.85;;;20.20;66.20;;;;;;10229498;28;20023;-56
2023/05/13 16:47:40;;;;;;;10.10;6.10;;;20.10;66.30;;;;;;10261814;28;20681;-57
2023/05/13 16:52:41;;;;;;;7.05;4.50;;;20.10;66.50;;;;;;10247166;29;20020;-52
2023/05/13 16:57:42;;;;;;;8.00;4.88;;;20.00;65.90;;;;;;10247238;28;20077;-56
2023/05/13 17:02:42;;;;;;;7.50;5.10;;;19.80;66.00;;;;;;10241588;28;20031;-55
2023/05/13 17:07:43;;;;;;;5.60;5.00;;;19.80;66.20;;;;;;10247938;28;20475;-55
2023/05/13 17:12:44;;;;;;;5.80;5.10;;;19.80;66.20;;;;;;10264127;28;20026;-54
2023/05/13 17:17:44;;;;;;;8.10;5.18;;;19.80;66.30;;;;;;10279980;28;20131;-58
2023/05/13 17:22:46;;;;;;;6.00;4.63;;;19.70;66.00;;;;;;10281023;28;20441;-53
2023/05/13 17:27:46;;;;;;;9.75;5.80;;;19.70;65.90;;;;;;10253744;28;20110;-54
2023/05/13 17:32:47;;;;;;;17.15;6.30;;;19.70;65.70;;;;;;10266533;28;20431;-55
2023/05/13 17:37:48;;;;;;;12.85;5.63;;;19.70;65.00;;;;;;10240175;28;20688;-55
2023/05/13 17:42:48;;;;;;;15.07;6.50;;;19.70;65.30;;;;;;10245465;28;20503;-55
2023/05/13 17:47:49;;;;;;;11.18;5.53;;;19.70;65.40;;;;;;10267839;28;20076;-55
2023/05/13 17:52:50;;;;;;;15.80;6.40;;;19.70;65.50;;;;;;10258832;28;20050;-53
2023/05/13 17:57:51;;;;;;;11.57;5.55;;;19.70;65.50;;;;;;10253260;28;20030;-56
2023/05/13 18:02:51;;;;;;;13.82;5.35;;;19.60;65.50;;;;;;10260621;28;20126;-53
2023/05/13 18:07:52;;;;;;;11.35;5.50;;;19.70;65.20;;;;;;10244562;28;20226;-55
2023/05/13 18:12:53;;;;;;;8.55;4.88;;;19.80;65.00;;;;;;10246542;28;20510;-55
2023/05/13 18:17:54;;;;;;;13.23;5.35;;;19.80;65.20;;;;;;10248146;28;20578;-53
2023/05/13 18:22:55;;;;;;;10.15;5.65;;;19.80;65.20;;;;;;10287422;28;20038;-55
2023/05/13 18:27:55;;;;;;;10.50;6.20;;;19.70;65.30;;;;;;10283950;28;20110;-53
2023/05/13 18:32:57;;;;;;;9.27;4.80;;;19.70;65.20;;;;;;10265942;28;20494;-52
2023/05/13 18:37:57;;;;;;;9.13;4.88;;;19.60;65.30;;;;;;10256339;28;20139;-54
2023/05/13 18:42:58;;;;;;;9.13;6.18;;;19.60;65.50;;;;;;10243046;29;20027;-54
2023/05/13 18:47:59;;;;;;;9.68;5.63;;;19.50;65.80;;;;;;10251759;28;20063;-54
2023/05/13 18:52:59;;;;;;;9.45;5.10;;;19.50;65.90;;;;;;10246880;28;20418;-54
2023/05/13 18:58:00;;;;;;;6.45;4.35;;;19.50;65.70;;;;;;10210048;28;20022;-54
2023/05/13 19:03:01;;;;;;;6.47;4.70;;;19.50;66.00;;;;;;10226263;29;20101;-53
2023/05/13 19:08:04;;;;;;;7.25;4.90;;;19.50;66.10;;;;;;10257007;28;20046;-53
2023/05/13 19:13:05;;;;;;;5.43;4.55;;;19.50;66.00;;;;;;10305273;28;20041;-55
2023/05/13 19:18:06;;;;;;;6.90;4.65;;;19.50;66.10;;;;;;10287779;28;20521;-54
2023/05/13 19:23:06;;;;;;;15.07;6.07;;;19.50;66.10;;;;;;10250433;29;20098;-53
2023/05/13 19:28:08;;;;;;;13.93;5.68;;;19.50;66.10;;;;;;10249214;28;20513;-54
2023/05/13 19:33:09;;;;;;;6.85;4.88;;;19.50;66.30;;;;;;10232664;28;20015;-54
2023/05/13 19:38:10;;;;;;;8.23;5.32;;;19.50;66.40;;;;;;10262726;28;20019;-54
2023/05/13 19:43:10;;;;;;;8.05;4.72;;;19.40;66.50;;;;;;10247697;28;20019;-53
2023/05/13 19:48:12;;;;;;;6.85;4.65;;;19.40;66.70;;;;;;10246844;28;20428;-53
2023/05/13 19:53:13;;;;;;;5.78;4.90;;;19.40;66.80;;;;;;10246847;29;20502;-52
2023/05/13 19:58:14;;;;;;;7.88;4.15;;;19.40;66.80;;;;;;10229840;29;20022;-53
2023/05/13 20:03:15;;;;;;;7.88;4.82;;;19.40;66.80;;;;;;10246441;29;20627;-52
2023/05/13 20:08:16;;;;;;;12.02;4.78;;;19.40;66.90;;;;;;10229367;29;20023;-54
2023/05/13 20:13:17;;;;;;;6.53;4.35;;;19.40;66.90;;;;;;10228881;28;20015;-53
2023/05/13 20:18:18;;;;;;;5.68;4.13;;;19.40;67.00;;;;;;10246531;28;20062;-53
2023/05/13 20:23:18;;;;;;;7.18;4.57;;;19.30;67.00;;;;;;10247434;28;20060;-54
2023/05/13 20:28:20;;;;;;;5.70;4.88;;;19.40;67.10;;;;;;10248570;28;20043;-54
2023/05/13 20:33:20;;;;;;;6.68;4.68;;;19.30;67.00;;;;;;10247579;28;20027;-54
2023/05/13 20:38:21;;;;;;;6.45;4.70;;;19.30;66.90;;;;;;10230449;29;20023;-53
2023/05/13 20:43:22;;;;;;;6.22;4.75;;;19.30;66.60;;;;;;10257298;28;20114;-53
2023/05/13 20:48:22;;;;;;;10.05;5.03;;;19.30;66.70;;;;;;10287311;28;20026;-54
2023/05/13 20:53:23;;;;;;;6.28;4.35;;;19.30;67.00;;;;;;10248368;28;20147;-53
2023/05/13 20:58:24;;;;;;;5.30;4.50;;;19.30;66.70;;;;;;10229571;28;20055;-53
2023/05/13 21:03:25;;;;;;;5.90;4.80;;;19.30;66.90;;;;;;10229557;28;20119;-53
2023/05/13 21:08:26;;;;;;;6.32;4.72;;;19.20;66.60;;;;;;10247055;28;20526;-53
2023/05/13 21:13:26;;;;;;;7.40;5.50;;;19.20;66.80;;;;;;10246412;28;20083;-53
2023/05/13 21:18:27;;;;;;;5.93;4.75;;;19.30;66.90;;;;;;10229318;29;20098;-53
2023/05/13 21:23:28;;;;;;;9.50;5.00;;;19.20;67.10;;;;;;10252604;28;20030;-53
2023/05/13 21:28:28;;;;;;;5.40;4.43;;;19.30;67.10;;;;;;10284546;28;20078;-53
2023/05/13 21:33:30;;;;;;;6.60;5.20;;;19.20;67.20;;;;;;10285808;28;20054;-54
2023/05/13 21:38:30;;;;;;;5.28;4.75;;;19.30;67.30;;;;;;10263393;28;20459;-54
2023/05/13 21:43:31;;;;;;;6.85;4.85;;;19.20;67.10;;;;;;10256853;28;20053;-53
2023/05/13 21:48:32;;;;;;;6.43;4.60;;;19.20;67.10;;;;;;10259908;28;20102;-54
2023/05/13 21:53:32;;;;;;;5.70;4.60;;;19.20;67.20;;;;;;10241983;28;20042;-53
2023/05/13 21:58:33;;;;;;;5.47;4.38;;;19.20;67.20;;;;;;10269555;28;20106;-54
2023/05/13 22:03:34;;;;;;;5.95;5.35;;;19.20;67.10;;;;;;10248100;28;20058;-53
2023/05/13 22:08:34;;;;;;;5.43;4.93;;;19.20;67.00;;;;;;10284538;28;20098;-52
2023/05/13 22:13:35;;;;;;;5.70;5.18;;;19.20;67.00;;;;;;10266945;28;20477;-53
2023/05/13 22:18:36;;;;;;;5.35;4.85;;;19.20;67.10;;;;;;10284049;28;20130;-54
2023/05/13 22:23:36;;;;;;;6.00;5.40;;;19.20;67.10;;;;;;10262798;28;20502;-54
2023/05/13 22:28:37;;;;;;;8.57;5.55;;;19.20;67.10;;;;;;10244013;28;20110;-54
2023/05/13 22:33:38;;;;;;;5.18;4.63;;;19.20;67.10;;;;;;10243630;28;20066;-53
2023/05/13 22:38:38;;;;;;;5.60;4.30;;;19.10;67.10;;;;;;10239039;28;20530;-55
2023/05/13 22:43:39;;;;;;;5.15;4.13;;;19.10;67.00;;;;;;10257311;28;20121;-53
2023/05/13 22:48:40;;;;;;;5.72;4.95;;;19.20;67.10;;;;;;10293004;28;20015;-53
2023/05/13 22:53:40;;;;;;;5.22;4.72;;;19.20;67.10;;;;;;10279813;28;20070;-53
2023/05/13 22:58:41;;;;;;;4.80;4.30;;;19.10;67.60;;;;;;10306310;28;20022;-53
2023/05/13 23:03:41;;;;;;;5.00;4.50;;;19.10;67.00;;;;;;10306120;28;20074;-53
2023/05/13 23:08:42;;;;;;;5.93;5.32;;;19.10;67.10;;;;;;10300861;28;20502;-54
2023/05/13 23:13:43;;;;;;;5.40;4.70;;;19.10;67.10;;;;;;10233489;29;20086;-53
2023/05/13 23:18:44;;;;;;;5.57;4.68;;;19.10;67.20;;;;;;10250545;28;20114;-53
2023/05/13 23:23:45;;;;;;;8.70;5.55;;;19.10;67.20;;;;;;10233467;29;20118;-54
2023/05/13 23:28:45;;;;;;;5.07;4.38;;;19.10;67.30;;;;;;10233248;29;20027;-54
2023/05/13 23:33:46;;;;;;;6.35;4.80;;;19.10;67.30;;;;;;10250256;28;20594;-52
2023/05/13 23:38:47;;;;;;;6.18;5.45;;;19.10;67.30;;;;;;10262433;28;20027;-53
2023/05/13 23:43:47;;;;;;;5.95;5.00;;;19.10;67.30;;;;;;10271909;28;20292;-54
2023/05/13 23:48:48;;;;;;;5.40;4.90;;;19.10;67.40;;;;;;10287256;28;20346;-53
2023/05/13 23:53:49;;;;;;;5.20;4.80;;;19.10;67.40;;;;;;10231906;29;20059;-54
2023/05/13 23:58:50;;;;;;;5.38;4.88;;;19.10;67.30;;;;;;10230753;29;20074;-52
